< Cyclone 197806 1978 Season Cyclone 197808 >
Cyclone 197807 (ALBY)
General InformationTrack Information on Google MapsDetailed Wind Information || ResourceGoogle EarthGE AnimationAtom FeedGeoJSON
Detalied Best Track (Time Zone = UTC)
Year Month Day Hour Lat. Long. Pressure (hPa) Wind (kt) Class Image Chart
1978 3 27 01 -13.6 115.0 1006 20 2 -- --
1978 3 27 04 -13.7 114.9 1006 20 2 -- --
1978 3 27 07 -13.8 114.9 1005 20 2 -- --
1978 3 27 10 -13.9 114.8 1005 20 2 -- --
1978 3 27 13 -14.0 114.5 1004 25 2 -- --
1978 3 27 16 -14.1 114.3 1004 25 2 -- --
1978 3 27 19 -14.4 113.9 1004 25 2 -- --
1978 3 27 22 -14.5 113.8 1003 25 2 -- --
1978 3 28 01 -14.5 113.7 1002 25 2 -- --
1978 3 28 04 -14.6 113.5 1001 25 2 -- --
1978 3 28 07 -14.6 113.3 1000 25 2 -- --
1978 3 28 10 -14.7 113.1 998 30 2 -- --
1978 3 28 13 -14.8 112.8 998 30 2 -- --
1978 3 28 16 -14.9 112.6 998 30 2 -- --
1978 3 28 19 -15.1 112.4 997 30 2 -- --
1978 3 28 22 -15.3 112.3 997 30 2 -- --
1978 3 29 01 -15.7 112.2 997 30 2 -- --
1978 3 29 04 -15.9 112.2 996 30 2 -- --
1978 3 29 07 -16.1 112.1 995 35 3 -- --
1978 3 29 10 -16.4 112.0 995 35 3 -- --
1978 3 29 13 -16.6 111.9 994 40 3 -- --
1978 3 29 16 -16.8 111.8 993 40 3 -- --
1978 3 29 19 -17.1 111.7 992 45 3 -- --
1978 3 29 22 -17.3 111.7 991 50 4 -- --
1978 3 30 01 -17.5 111.6 990 50 4 -- --
1978 3 30 04 -17.7 111.5 987 50 4 -- --
1978 3 30 07 -17.9 111.4 984 50 4 -- --
1978 3 30 10 -18.1 111.3 982 50 4 -- --
1978 3 30 13 -18.2 111.1 980 55 4 -- --
1978 3 30 16 -18.3 110.9 977 55 4 -- --
1978 3 30 19 -18.5 110.6 974 60 4 -- --
1978 3 30 22 -18.6 110.3 972 65 5 -- --
1978 3 31 01 -18.7 110.1 970 70 5 -- --
1978 3 31 04 -18.8 109.9 967 75 5 -- --
1978 3 31 07 -18.9 109.7 965 80 5 -- --
1978 3 31 10 -19.0 109.5 962 80 5 -- --
1978 3 31 13 -19.1 109.3 960 85 5 -- --
1978 3 31 16 -19.2 109.0 957 90 5 -- --
1978 3 31 19 -19.4 108.7 955 90 5 -- --
1978 3 31 22 -19.6 108.5 952 90 5 -- --
1978 4 1 01 -19.8 108.3 950 90 5 -- --
1978 4 1 04 -20.0 107.9 947 95 5 -- --
1978 4 1 07 -20.1 107.6 945 95 5 -- --
1978 4 1 10 -20.3 107.3 943 95 5 -- --
1978 4 1 13 -20.5 106.8 940 100 5 -- --
1978 4 1 16 -20.6 106.5 937 100 5 -- --
1978 4 1 19 -20.9 106.2 934 105 5 -- --
1978 4 1 22 -21.1 106.0 932 110 5 -- --
1978 4 2 01 -21.3 105.9 930 110 5 -- --
1978 4 2 04 -21.4 105.8 931 110 5 -- --
1978 4 2 07 -21.6 105.8 932 110 5 -- --
1978 4 2 10 -21.7 105.9 933 110 5 -- --
1978 4 2 13 -21.9 106.0 935 105 5 -- --
1978 4 2 16 -22.1 106.1 936 100 5 -- --
1978 4 2 19 -22.5 106.2 937 100 5 -- --
1978 4 2 22 -23.0 106.3 938 100 5 -- --
1978 4 3 01 -23.5 106.4 940 100 5 -- --
1978 4 3 04 -24.0 106.5 942 100 5 -- --
1978 4 3 07 -24.6 106.7 944 95 5 -- --
1978 4 3 10 -25.3 106.9 947 90 5 -- --
1978 4 3 13 -26.1 107.3 950 90 5 -- --
1978 4 3 16 -26.7 107.7 952 90 5 -- --
1978 4 3 19 -27.6 108.2 955 85 5 -- --
1978 4 3 22 -28.6 108.8 957 85 5 -- --
1978 4 4 01 -29.8 109.6 960 85 5 -- --
1978 4 4 04 -30.9 110.4 962 85 5 -- --
1978 4 4 06 -31.4 110.9 963.5 85 5 -- --
1978 4 4 07 -32.0 111.5 965 80 5 -- --
1978 4 4 10 -33.4 112.8 967 80 5 -- --
1978 4 4 13 -35.1 115.0 970 65 5 -- --
1978 4 4 16 -36.5 117.8 978 55 4 -- --
1978 4 4 19 -38.1 120.7 989 45 3 -- --
1978 4 4 22 -39.9 123.5 1000 40 3 -- --
< Cyclone 197806 1978 Season Cyclone 197808 >

Help